Terminal Aerodrome Forecast
Issued by NWS Twin Cities, MN

Home | Current Version | Previous Version | Graphics & Text | Print | Product List | Glossary On
Versions: 1 2 3 4 5 6 7 8 9 10 11 12 13 14 15
000
FTUS43 KMPX 221120
TAFSTC
TAF
KSTC 221120Z 2212/2312 25005KT P6SM FEW100 SCT200
     FM221500 28008KT P6SM SCT040 BKN090
     FM222200 30009KT P6SM BKN060
     FM230900 33004KT P6SM BKN020 OVC040=

USA.gov is the U.S. government's official web portal to all federal, state and local government web resources and services.